createdAt,value
2019-01-28T00:00:36.893Z,1.50
2019-01-28T00:03:05.929Z,1.90
2019-01-28T00:05:34.387Z,1.93
2019-01-28T00:08:02.731Z,2.10
2019-01-28T00:10:31.160Z,1.73
2019-01-28T00:12:59.529Z,2.27
2019-01-28T00:15:27.966Z,1.77
2019-01-28T00:17:56.363Z,1.90
2019-01-28T00:20:24.696Z,2.67
2019-01-28T00:22:53.070Z,1.60
2019-01-28T00:25:21.403Z,2.10
2019-01-28T00:27:49.777Z,2.27
2019-01-28T00:30:18.235Z,2.07
2019-01-28T00:32:46.580Z,2.10
2019-01-28T00:35:14.944Z,1.80
2019-01-28T00:37:43.259Z,1.60
2019-01-28T00:40:11.797Z,1.80
2019-01-28T00:42:40.141Z,1.63
2019-01-28T00:45:09.727Z,1.97
2019-01-28T00:47:38.096Z,1.80
2019-01-28T00:50:07.115Z,1.87
2019-01-28T00:52:35.466Z,2.40
2019-01-28T00:55:04.455Z,1.87
2019-01-28T00:57:32.890Z,2.10
2019-01-28T01:00:01.229Z,2.50
2019-01-28T01:02:29.670Z,1.80
2019-01-28T01:04:58.007Z,2.13
2019-01-28T01:07:26.422Z,1.90
2019-01-28T01:09:54.837Z,1.70
2019-01-28T01:12:23.165Z,1.97
2019-01-28T01:14:51.595Z,2.40
2019-01-28T01:17:19.922Z,2.13
2019-01-28T01:19:48.356Z,1.97
2019-01-28T01:22:16.763Z,2.37
2019-01-28T01:24:45.133Z,1.73
2019-01-28T01:27:13.579Z,1.60
2019-01-28T01:29:41.915Z,2.10
2019-01-28T01:32:10.377Z,2.03
2019-01-28T01:34:38.720Z,2.17
2019-01-28T01:37:07.148Z,1.83
2019-01-28T01:39:35.518Z,2.10
2019-01-28T01:42:03.954Z,2.00
2019-01-28T01:44:32.279Z,1.70
2019-01-28T01:47:00.630Z,1.80
2019-01-28T01:49:28.991Z,1.97
2019-01-28T01:51:57.323Z,2.07
2019-01-28T01:54:26.170Z,2.67
2019-01-28T01:56:54.487Z,1.90
2019-01-28T01:59:22.848Z,1.83
2019-01-28T02:01:51.238Z,1.80
2019-01-28T02:04:19.605Z,2.20
2019-01-28T02:06:47.952Z,2.07
2019-01-28T02:09:16.290Z,2.00
2019-01-28T02:11:44.717Z,1.83
2019-01-28T02:14:13.052Z,2.07
2019-01-28T02:16:41.499Z,1.93
2019-01-28T02:19:09.845Z,1.63
2019-01-28T02:21:38.151Z,2.70
2019-01-28T02:24:06.715Z,2.00
2019-01-28T02:26:35.234Z,1.93
2019-01-28T02:29:03.660Z,1.87
2019-01-28T02:31:32.023Z,1.90
2019-01-28T02:34:00.466Z,2.40
2019-01-28T02:36:28.823Z,2.17
2019-01-28T02:38:57.186Z,2.00
2019-01-28T02:41:25.537Z,1.83
2019-01-28T02:43:53.884Z,2.00
2019-01-28T02:46:22.212Z,2.20
2019-01-28T02:48:50.567Z,2.10
2019-01-28T02:51:18.935Z,1.77
2019-01-28T02:53:47.270Z,2.90
2019-01-28T02:56:15.624Z,2.10
2019-01-28T02:58:44.118Z,2.60
2019-01-28T03:01:12.483Z,2.40
2019-01-28T03:03:40.846Z,2.07
2019-01-28T03:06:09.240Z,2.67
2019-01-28T03:08:37.580Z,1.90
2019-01-28T03:11:05.891Z,1.60
2019-01-28T03:13:34.219Z,2.73
2019-01-28T03:16:02.592Z,2.37
2019-01-28T03:18:30.894Z,2.00
2019-01-28T03:20:59.220Z,1.93
2019-01-28T03:23:29.131Z,1.80
2019-01-28T03:25:57.596Z,2.43
2019-01-28T03:28:25.973Z,1.70
2019-01-28T03:30:54.366Z,1.77
2019-01-28T03:33:22.705Z,1.63
2019-01-28T03:35:51.165Z,2.07
2019-01-28T03:38:19.507Z,2.50
2019-01-28T03:40:47.855Z,2.00
2019-01-28T03:43:16.207Z,2.20
2019-01-28T03:45:44.664Z,2.13
2019-01-28T03:48:13.035Z,1.47
2019-01-28T03:50:41.379Z,1.67
2019-01-28T03:53:11.298Z,1.80
2019-01-28T03:55:39.865Z,1.90
2019-01-28T03:58:08.276Z,1.77
2019-01-28T04:00:36.684Z,2.60
2019-01-28T04:03:05.214Z,1.73
2019-01-28T04:05:33.634Z,1.90
2019-01-28T04:08:02.069Z,2.03
2019-01-28T04:10:30.510Z,1.73
2019-01-28T04:12:58.843Z,3.07
2019-01-28T04:15:27.293Z,1.73
2019-01-28T04:17:55.614Z,1.67
2019-01-28T04:20:26.247Z,1.70
2019-01-28T04:22:54.591Z,2.40
2019-01-28T04:25:23.945Z,1.90
2019-01-28T04:27:52.761Z,1.77
2019-01-28T04:30:22.257Z,1.90
2019-01-28T04:32:50.617Z,2.23
2019-01-28T04:35:19.102Z,1.83
2019-01-28T04:37:47.543Z,1.70
2019-01-28T04:40:16.394Z,1.97
2019-01-28T04:42:44.714Z,1.53
2019-01-28T04:45:14.438Z,1.50
2019-01-28T04:47:42.775Z,1.50
2019-01-28T04:50:12.506Z,2.07
2019-01-28T04:52:40.872Z,1.50
2019-01-28T04:55:09.335Z,1.57
2019-01-28T04:57:37.858Z,1.40
2019-01-28T05:00:07.842Z,1.93
2019-01-28T05:02:36.173Z,1.57
2019-01-28T05:05:04.830Z,1.40
2019-01-28T05:07:33.211Z,1.40
2019-01-28T05:10:01.540Z,1.23
2019-01-28T05:12:29.868Z,1.30
2019-01-28T05:14:58.207Z,1.30
2019-01-28T05:17:26.640Z,2.13
2019-01-28T05:19:55.078Z,1.20
2019-01-28T05:22:23.401Z,1.20
2019-01-28T05:24:51.750Z,1.07
2019-01-28T05:27:20.047Z,1.00
2019-01-28T05:29:48.387Z,1.50
2019-01-28T05:32:16.742Z,1.13
2019-01-28T05:34:45.089Z,1.80
2019-01-28T05:37:14.025Z,2.07
2019-01-28T05:39:42.415Z,2.13
2019-01-28T05:42:10.744Z,1.70
2019-01-28T05:44:39.201Z,1.40
2019-01-28T05:47:07.537Z,1.50
2019-01-28T05:49:35.868Z,2.07
2019-01-28T05:52:04.210Z,1.47
2019-01-28T05:54:32.546Z,2.03
2019-01-28T05:57:00.902Z,3.03
2019-01-28T05:59:29.266Z,2.30
2019-01-28T06:01:57.611Z,1.83
2019-01-28T06:04:25.954Z,1.63
2019-01-28T06:06:54.296Z,1.70
2019-01-28T06:09:22.634Z,2.67
2019-01-28T06:11:51.023Z,1.73
2019-01-28T06:14:19.349Z,2.20
2019-01-28T06:16:47.748Z,1.80
2019-01-28T06:19:16.181Z,1.80
2019-01-28T06:21:44.518Z,2.30
2019-01-28T06:24:12.842Z,2.30
2019-01-28T06:26:41.174Z,1.43
2019-01-28T06:29:09.482Z,1.60
2019-01-28T06:31:37.827Z,1.80
2019-01-28T06:34:06.310Z,1.97
2019-01-28T06:36:34.676Z,1.93
2019-01-28T06:39:03.194Z,1.50
2019-01-28T06:41:31.533Z,2.43
2019-01-28T06:43:59.975Z,2.27
2019-01-28T06:46:28.293Z,1.40
2019-01-28T06:48:56.617Z,2.10
2019-01-28T06:51:24.961Z,1.90
2019-01-28T06:53:53.302Z,2.80
2019-01-28T06:56:21.607Z,2.30
2019-01-28T06:58:49.961Z,3.17
2019-01-28T07:01:18.328Z,3.23
2019-01-28T07:03:46.650Z,2.10
2019-01-28T07:06:14.963Z,2.20
2019-01-28T07:08:43.878Z,2.40
2019-01-28T07:11:12.582Z,3.07
2019-01-28T07:13:41.004Z,2.33
2019-01-28T07:16:09.495Z,2.33
2019-01-28T07:18:37.840Z,1.90
2019-01-28T07:21:06.174Z,1.80
2019-01-28T07:23:34.540Z,2.40
2019-01-28T07:26:02.981Z,2.23
2019-01-28T07:28:31.336Z,1.97
2019-01-28T07:30:59.662Z,3.43
2019-01-28T07:33:27.991Z,2.30
2019-01-28T07:35:56.335Z,2.90
2019-01-28T07:38:24.703Z,2.93
2019-01-28T07:40:53.031Z,2.50
2019-01-28T07:43:22.795Z,2.13
2019-01-28T07:45:51.248Z,2.07
2019-01-28T07:48:19.770Z,3.00
2019-01-28T07:50:48.127Z,2.10
2019-01-28T07:53:16.588Z,2.73
2019-01-28T07:55:44.946Z,2.80
2019-01-28T07:58:13.321Z,3.37
2019-01-28T08:00:41.620Z,3.07
2019-01-28T08:03:09.980Z,2.30
2019-01-28T08:05:38.460Z,3.00
2019-01-28T08:08:06.967Z,2.33
2019-01-28T08:10:35.396Z,3.20
2019-01-28T08:13:03.875Z,3.70
2019-01-28T08:15:32.195Z,3.23
2019-01-28T08:18:00.528Z,2.07
2019-01-28T08:20:29.035Z,2.63
2019-01-28T08:22:57.350Z,2.90
2019-01-28T08:25:25.840Z,3.30
2019-01-28T08:27:54.246Z,2.50
2019-01-28T08:30:26.703Z,3.23
2019-01-28T08:32:55.131Z,3.20
2019-01-28T08:35:23.591Z,3.47
2019-01-28T08:37:51.928Z,3.17
2019-01-28T08:40:21.380Z,3.60
2019-01-28T08:42:49.888Z,3.67
2019-01-28T08:45:18.312Z,3.97
2019-01-28T08:47:46.654Z,3.57
2019-01-28T08:50:17.110Z,3.33
2019-01-28T08:52:46.037Z,3.83
2019-01-28T08:55:15.932Z,3.43
2019-01-28T08:57:44.294Z,4.30
2019-01-28T09:00:14.781Z,4.17
2019-01-28T09:02:43.172Z,3.57
2019-01-28T09:05:12.012Z,3.70
2019-01-28T09:07:40.359Z,3.70
2019-01-28T09:10:10.118Z,5.07
2019-01-28T09:12:38.551Z,4.80
2019-01-28T09:15:07.364Z,5.10
2019-01-28T09:17:35.859Z,4.60
2019-01-28T09:20:05.342Z,4.93
2019-01-28T09:22:33.786Z,5.20
2019-01-28T09:25:02.284Z,4.93
2019-01-28T09:27:30.612Z,5.57
2019-01-28T09:29:58.951Z,4.57
2019-01-28T09:32:27.290Z,4.83
2019-01-28T09:34:55.641Z,5.33
2019-01-28T09:37:24.001Z,5.90
2019-01-28T09:39:52.315Z,5.60
2019-01-28T09:42:20.659Z,5.23
2019-01-28T09:44:49.162Z,5.00
2019-01-28T09:47:17.496Z,5.67
2019-01-28T09:49:45.865Z,4.73
2019-01-28T09:52:14.277Z,5.50
2019-01-28T09:54:43.713Z,4.80
2019-01-28T09:57:12.340Z,4.73
2019-01-28T09:59:40.772Z,5.07
2019-01-28T10:02:09.205Z,4.80
2019-01-28T10:04:37.627Z,4.00
2019-01-28T10:07:06.099Z,5.07
2019-01-28T10:09:34.438Z,4.57
2019-01-28T10:12:02.785Z,4.67
2019-01-28T10:14:31.236Z,5.70
2019-01-28T10:16:59.563Z,4.67
2019-01-28T10:19:27.900Z,4.23
2019-01-28T10:21:56.222Z,3.90
2019-01-28T10:24:24.560Z,3.93
2019-01-28T10:26:52.998Z,3.80
2019-01-28T10:29:21.493Z,4.53
2019-01-28T10:31:49.847Z,4.03
2019-01-28T10:34:18.315Z,4.53
2019-01-28T10:36:46.673Z,4.50
2019-01-28T10:39:15.135Z,4.53
2019-01-28T10:41:43.539Z,3.87
2019-01-28T10:44:11.873Z,3.60
2019-01-28T10:46:40.222Z,3.93
2019-01-28T10:49:08.593Z,4.27
2019-01-28T10:51:37.022Z,4.30
2019-01-28T10:54:05.824Z,4.23
2019-01-28T10:56:34.371Z,3.83
2019-01-28T10:59:02.720Z,4.43
2019-01-28T11:01:31.110Z,3.90
2019-01-28T11:03:59.474Z,3.93
2019-01-28T11:06:27.843Z,3.77
2019-01-28T11:08:56.187Z,3.20
2019-01-28T11:11:24.610Z,2.97
2019-01-28T11:13:53.065Z,2.67
2019-01-28T11:16:21.402Z,3.20
2019-01-28T11:18:57.402Z,3.00
2019-01-28T11:21:19.838Z,4.03
2019-01-28T11:23:48.314Z,3.47
2019-01-28T11:26:16.950Z,3.03
2019-01-28T11:28:45.253Z,3.00
2019-01-28T11:31:13.706Z,2.60
2019-01-28T11:33:42.224Z,3.63
2019-01-28T11:36:11.394Z,2.83
2019-01-28T11:38:39.834Z,2.40
2019-01-28T11:41:08.480Z,3.03
2019-01-28T11:43:36.937Z,2.07
2019-01-28T11:46:06.646Z,1.83
2019-01-28T11:48:35.078Z,1.90
2019-01-28T11:51:03.488Z,2.40
2019-01-28T11:53:31.946Z,2.60
2019-01-28T11:56:00.355Z,1.93
2019-01-28T11:58:28.765Z,1.63
2019-01-28T12:01:27.499Z,1.90
2019-01-28T12:03:56.079Z,2.63
2019-01-28T12:06:24.497Z,2.17
2019-01-28T12:08:52.941Z,2.83
2019-01-28T12:11:21.390Z,1.50
2019-01-28T12:13:49.829Z,1.67
2019-01-28T12:16:18.355Z,1.40
2019-01-28T12:18:46.783Z,1.17
2019-01-28T12:21:15.218Z,1.80
2019-01-28T12:23:43.543Z,1.23
2019-01-28T12:26:11.970Z,1.10
2019-01-28T12:28:40.360Z,1.27
2019-01-28T12:31:08.794Z,1.67
2019-01-28T12:33:37.205Z,1.40
2019-01-28T12:36:05.718Z,1.20
2019-01-28T12:38:34.184Z,1.20
2019-01-28T12:41:02.507Z,1.40
2019-01-28T12:43:30.875Z,1.70
2019-01-28T12:45:59.326Z,2.20
2019-01-28T12:48:27.643Z,1.57
2019-01-28T12:50:56.091Z,1.90
2019-01-28T12:53:24.433Z,1.80
2019-01-28T12:55:52.854Z,1.60
2019-01-28T12:58:21.298Z,1.67
2019-01-28T13:00:55.347Z,1.57
2019-01-28T13:03:24.188Z,2.13
2019-01-28T13:05:52.767Z,2.20
2019-01-28T13:08:21.808Z,1.83
2019-01-28T13:10:50.189Z,2.10
2019-01-28T13:13:18.622Z,1.80
2019-01-28T13:15:47.269Z,1.53
2019-01-28T13:18:15.659Z,1.87
2019-01-28T13:20:44.063Z,1.73
2019-01-28T13:23:12.527Z,1.47
2019-01-28T13:25:41.150Z,1.33
2019-01-28T13:28:09.735Z,1.63
2019-01-28T13:30:38.972Z,1.80
2019-01-28T13:33:09.507Z,1.57
2019-01-28T13:35:37.897Z,1.83
2019-01-28T13:38:06.371Z,1.77
2019-01-28T13:40:34.934Z,1.80
2019-01-28T13:43:03.443Z,1.90
2019-01-28T13:45:31.962Z,1.60
2019-01-28T13:48:00.979Z,1.90
2019-01-28T13:50:29.575Z,2.27
2019-01-28T13:52:58.124Z,2.23
2019-01-28T13:55:26.645Z,1.40
2019-01-28T13:57:55.305Z,1.27
2019-01-28T14:00:24.922Z,1.63
2019-01-28T14:02:53.457Z,1.77
2019-01-28T14:05:22.442Z,1.70
2019-01-28T14:07:50.954Z,1.90
2019-01-28T14:10:19.645Z,1.27
2019-01-28T14:12:48.215Z,1.60
2019-01-28T14:15:35.965Z,1.00
2019-01-28T14:18:04.443Z,2.00
2019-01-28T14:20:33.166Z,1.20
2019-01-28T14:23:01.613Z,1.30
2019-01-28T14:25:30.051Z,1.30
2019-01-28T14:27:58.387Z,1.70
2019-01-28T14:30:36.966Z,2.00
2019-01-28T14:33:05.450Z,2.77
2019-01-28T14:35:33.904Z,2.00
2019-01-28T14:38:03.818Z,1.90
2019-01-28T14:40:32.673Z,2.70
2019-01-28T14:43:01.286Z,2.47
2019-01-28T14:45:29.894Z,1.80
2019-01-28T14:47:58.305Z,3.07
2019-01-28T14:50:28.108Z,1.70
2019-01-28T14:52:56.559Z,1.93
2019-01-28T14:55:25.008Z,2.20
2019-01-28T14:57:53.426Z,2.23
2019-01-28T15:00:23.579Z,2.20
2019-01-28T15:02:51.918Z,2.07
2019-01-28T15:05:20.375Z,1.83
2019-01-28T15:07:48.846Z,1.60
2019-01-28T15:10:17.655Z,2.60
2019-01-28T15:12:47.697Z,2.40
2019-01-28T15:15:17.346Z,2.30
2019-01-28T15:17:45.870Z,1.53
2019-01-28T15:20:14.312Z,1.87
2019-01-28T15:22:42.782Z,1.83
2019-01-28T15:25:11.740Z,1.90
2019-01-28T15:27:40.190Z,1.57
2019-01-28T15:30:10.843Z,1.30
2019-01-28T15:32:39.332Z,1.40
2019-01-28T15:35:08.022Z,1.33
2019-01-28T15:37:36.413Z,1.73
2019-01-28T15:40:05.713Z,1.63
2019-01-28T15:42:34.160Z,1.90
2019-01-28T15:45:02.603Z,1.40
2019-01-28T15:47:31.076Z,1.77
2019-01-28T15:50:00.289Z,1.60
2019-01-28T15:52:28.869Z,1.53
2019-01-28T15:54:57.236Z,1.17
2019-01-28T15:57:25.616Z,1.67
2019-01-28T15:59:53.987Z,1.93
2019-01-28T16:02:22.580Z,1.70
2019-01-28T16:04:50.952Z,1.20
2019-01-28T16:07:19.301Z,1.50
2019-01-28T16:09:47.953Z,1.60
2019-01-28T16:12:16.570Z,2.27
2019-01-28T16:14:44.916Z,2.23
2019-01-28T16:17:13.231Z,1.80
2019-01-28T16:19:41.646Z,1.57
2019-01-28T16:22:10.182Z,2.70
2019-01-28T16:24:38.511Z,1.60
2019-01-28T16:27:07.054Z,1.87
2019-01-28T16:29:35.391Z,1.77
2019-01-28T16:32:03.892Z,2.30
2019-01-28T16:34:32.277Z,1.93
2019-01-28T16:37:00.615Z,1.50
2019-01-28T16:39:28.947Z,1.30
2019-01-28T16:41:57.798Z,1.63
2019-01-28T16:44:27.184Z,2.23
2019-01-28T16:46:55.514Z,1.60
2019-01-28T16:49:24.277Z,1.80
2019-01-28T16:51:52.723Z,1.87
2019-01-28T16:54:21.293Z,1.77
2019-01-28T16:56:49.635Z,1.43
2019-01-28T16:59:17.955Z,1.53
2019-01-28T17:01:46.319Z,1.53
2019-01-28T17:04:14.634Z,1.87
2019-01-28T17:06:43.000Z,2.23
2019-01-28T17:09:11.476Z,2.10
2019-01-28T17:11:39.916Z,1.83
2019-01-28T17:14:08.343Z,2.87
2019-01-28T17:16:36.767Z,1.70
2019-01-28T17:19:05.581Z,1.57
2019-01-28T17:21:34.002Z,1.80
2019-01-28T17:24:02.439Z,1.73
2019-01-28T17:26:30.813Z,1.83
2019-01-28T17:28:59.154Z,1.90
2019-01-28T17:31:27.521Z,1.90
2019-01-28T17:33:55.851Z,2.20
2019-01-28T17:36:24.195Z,1.97
2019-01-28T17:39:12.822Z,1.80
2019-01-28T17:41:41.142Z,2.17
2019-01-28T17:44:09.488Z,2.13
2019-01-28T17:46:37.875Z,2.20
2019-01-28T17:49:06.294Z,1.60
2019-01-28T17:51:34.642Z,2.00
2019-01-28T17:54:02.961Z,2.73
2019-01-28T17:56:31.340Z,1.63
2019-01-28T17:58:59.879Z,2.20
2019-01-28T18:01:28.224Z,2.30
2019-01-28T18:03:56.628Z,1.80
2019-01-28T18:06:25.070Z,1.77
2019-01-28T18:08:53.379Z,2.33
2019-01-28T18:11:21.805Z,2.20
2019-01-28T18:13:50.166Z,2.30
2019-01-28T18:16:18.509Z,2.80
2019-01-28T18:18:46.894Z,1.77
2019-01-28T18:21:15.219Z,2.53
2019-01-28T18:23:54.422Z,1.33
2019-01-28T18:26:23.034Z,2.10
2019-01-28T18:28:51.389Z,2.20
2019-01-28T18:31:19.808Z,2.57
2019-01-28T18:33:48.269Z,2.00
2019-01-28T18:36:16.586Z,1.97
2019-01-28T18:38:45.033Z,2.30
2019-01-28T18:41:13.499Z,2.53
2019-01-28T18:43:41.868Z,2.97
2019-01-28T18:46:10.344Z,2.23
2019-01-28T18:48:38.694Z,2.07
2019-01-28T18:51:07.133Z,1.90
2019-01-28T18:53:35.483Z,2.87
2019-01-28T18:56:03.914Z,2.33
2019-01-28T18:58:32.347Z,2.80
2019-01-28T19:01:00.758Z,2.60
2019-01-28T19:03:29.367Z,2.70
2019-01-28T19:06:31.894Z,2.23
2019-01-28T19:09:19.118Z,2.20
2019-01-28T19:11:53.182Z,2.37
2019-01-28T19:14:52.564Z,2.50
2019-01-28T19:17:29.405Z,3.27
2019-01-28T19:20:31.963Z,2.50
2019-01-28T19:23:00.914Z,2.50
2019-01-28T19:25:29.970Z,2.90
2019-01-28T19:27:58.299Z,5.70
2019-01-28T19:30:27.911Z,1.80
2019-01-28T19:32:56.247Z,2.03
2019-01-28T19:35:24.658Z,2.13
2019-01-28T19:37:53.015Z,2.87
2019-01-28T19:40:21.356Z,2.83
2019-01-28T19:42:49.673Z,2.50
2019-01-28T19:45:19.439Z,2.90
2019-01-28T19:47:48.101Z,2.80
2019-01-28T19:50:18.099Z,1.90
2019-01-28T19:52:46.618Z,2.20
2019-01-28T19:55:15.565Z,2.20
2019-01-28T19:57:44.027Z,2.20
2019-01-28T20:00:15.246Z,2.30
2019-01-28T20:02:43.869Z,2.37
2019-01-28T20:05:12.389Z,2.40
2019-01-28T20:07:40.975Z,2.57
2019-01-28T20:10:09.623Z,2.20
2019-01-28T20:12:38.013Z,2.57
2019-01-28T20:15:07.201Z,2.60
2019-01-28T20:17:35.561Z,2.20
2019-01-28T20:20:05.050Z,2.70
2019-01-28T20:22:33.359Z,2.53
2019-01-28T20:25:01.755Z,2.20
2019-01-28T20:27:30.141Z,2.03
2019-01-28T20:29:58.521Z,1.93
2019-01-28T20:32:26.916Z,3.90
2019-01-28T20:34:55.319Z,1.80
2019-01-28T20:37:23.731Z,2.60
2019-01-28T20:39:52.103Z,2.47
2019-01-28T20:42:20.585Z,2.47
2019-01-28T20:44:48.954Z,2.43
2019-01-28T20:47:17.331Z,3.00
2019-01-28T20:49:45.725Z,2.57
2019-01-28T20:52:14.232Z,2.70
2019-01-28T20:54:42.932Z,2.93
2019-01-28T20:57:11.827Z,2.43
2019-01-28T20:59:40.757Z,1.90
2019-01-28T21:02:09.597Z,2.07
2019-01-28T21:04:38.379Z,1.70
2019-01-28T21:07:07.311Z,2.40
2019-01-28T21:09:36.088Z,2.03
2019-01-28T21:12:06.210Z,2.13
2019-01-28T21:14:35.050Z,2.07
2019-01-28T21:17:04.071Z,2.60
2019-01-28T21:19:33.749Z,2.10
2019-01-28T21:22:02.470Z,1.87
2019-01-28T21:24:31.394Z,1.97
2019-01-28T21:26:59.819Z,2.37
2019-01-28T21:29:28.198Z,2.17
2019-01-28T21:31:56.597Z,1.90
2019-01-28T21:34:24.968Z,2.00
2019-01-28T21:37:01.924Z,2.00
2019-01-28T21:39:30.326Z,2.17
2019-01-28T21:41:58.826Z,1.67
2019-01-28T21:44:27.310Z,2.07
2019-01-28T21:46:55.882Z,1.70
2019-01-28T21:49:24.383Z,1.70
2019-01-28T21:51:52.815Z,1.63
2019-01-28T21:54:21.345Z,1.37
2019-01-28T21:56:49.714Z,1.50
2019-01-28T21:59:18.131Z,1.90
2019-01-28T22:01:46.515Z,1.67
2019-01-28T22:04:14.904Z,1.73
2019-01-28T22:06:43.286Z,1.70
2019-01-28T22:09:11.791Z,1.60
2019-01-28T22:11:40.275Z,1.60
2019-01-28T22:14:08.640Z,1.83
2019-01-28T22:16:37.088Z,1.83
2019-01-28T22:19:05.605Z,1.67
2019-01-28T22:21:34.015Z,1.40
2019-01-28T22:24:02.392Z,2.00
2019-01-28T22:26:30.764Z,1.70
2019-01-28T22:28:59.066Z,1.40
2019-01-28T22:31:27.476Z,2.20
2019-01-28T22:33:55.795Z,2.00
2019-01-28T22:36:24.231Z,1.67
2019-01-28T22:38:52.711Z,1.90
2019-01-28T22:41:21.273Z,1.87
2019-01-28T22:43:49.627Z,1.57
2019-01-28T22:46:18.004Z,1.30
2019-01-28T22:48:46.672Z,1.80
2019-01-28T22:51:15.098Z,1.57
2019-01-28T22:53:43.535Z,1.63
2019-01-28T22:56:12.003Z,1.90
2019-01-28T22:58:40.469Z,1.83
2019-01-28T23:01:36.676Z,1.60
2019-01-28T23:04:05.895Z,1.90
2019-01-28T23:06:34.408Z,1.90
2019-01-28T23:09:04.379Z,1.70
2019-01-28T23:11:32.850Z,1.67
2019-01-28T23:14:01.339Z,1.50
2019-01-28T23:16:29.793Z,1.60
2019-01-28T23:18:58.251Z,1.73
2019-01-28T23:21:26.688Z,1.63
2019-01-28T23:23:55.166Z,2.20
2019-01-28T23:26:23.512Z,1.70
2019-01-28T23:28:52.006Z,2.07
2019-01-28T23:31:20.475Z,1.60
2019-01-28T23:33:50.068Z,1.90
2019-01-28T23:36:18.584Z,1.90
2019-01-28T23:38:47.019Z,1.97
2019-01-28T23:41:15.434Z,2.10
2019-01-28T23:43:43.759Z,1.90
2019-01-28T23:46:12.106Z,1.80
2019-01-28T23:48:40.572Z,2.10
2019-01-28T23:51:09.063Z,1.93
2019-01-28T23:53:37.459Z,2.10
2019-01-28T23:56:06.026Z,1.67
2019-01-28T23:58:34.394Z,1.70
